ADDS METAR Data INFO
IDs: Format: Raw Decoded Include TAF

Data at: 0056 UTC 22 Oct 2017

KIAD 220052Z 00000KT 10SM BKN200 15/08 A3035 RMK AO2 SLP278 T01500083
KIAD 212352Z 14003KT 10SM BKN140 OVC250 17/08 A3035 RMK AO2 SLP276 T01720078 10250 20172 52009
KIAD 212252Z 15005KT 10SM BKN140 OVC250 19/07 A3034 RMK AO2 SLP272 T01890067
KIAD 212152Z COR 14003KT 10SM SCT140 OVC250 21/05 A3033 RMK AO2 SLP269 T02110050
KIAD 212052Z 15005KT 10SM FEW160 BKN250 22/07 A3032 RMK AO2 SLP266 T02220067 55001
KIAD 211952Z VRB04KT 10SM BKN250 24/07 A3031 RMK AO2 SLP263 T02440067
KIAD 211852Z VRB04KT 10SM R01R/6000VP6000FT BKN250 24/06 A3031 RMK AO2 SLP262 T02440061
KIAD 211752Z 00000KT 10SM BKN250 24/07 A3032 RMK AO2 SLP267 T02390067 10239 20067 58017
KIAD 211652Z 00000KT 10SM BKN250 23/07 A3035 RMK AO2 SLP275 T02330067
KIAD 211552Z 27003KT 10SM BKN250 22/09 A3036 RMK AO2 SLP281 T02170089
KIAD 211452Z 00000KT 10SM BKN250 19/09 A3037 RMK AO2 SLP284 T01890094 51013
KIAD 211352Z 00000KT 10SM SCT250 14/09 A3037 RMK AO2 SLP283 T01440094
KIAD 211252Z 00000KT 10SM SCT250 12/09 A3036 RMK AO2 SLP280 T01220094
KIAD 211152Z 00000KT 10SM SCT250 07/07 A3033 RMK AO2 SLP272 T00670067 10083 20056 53016
KIAD 211052Z 30003KT 10SM FEW250 06/06 A3031 RMK AO2 SLP265 T00610061
KIAD 210952Z 00000KT 9SM CLR 06/06 A3030 RMK AO2 SLP259 T00610061
KIAD 210852Z 00000KT 7SM CLR 07/06 A3029 RMK AO2 SLP255 T00670061 53002
KIAD 210752Z 00000KT 7SM CLR 06/06 A3028 RMK AO2 SLP252 T00610061
KIAD 210652Z 00000KT 9SM CLR 08/07 A3028 RMK AO2 SLP252 T00780072
KIAD 210552Z 00000KT 6SM BR CLR 08/08 A3028 RMK AO2 SLP252 T00830078 10144 20078 51009
KIAD 210452Z 00000KT 10SM CLR 09/08 A3027 RMK AO2 SLP250 T00890078 402440067
KIAD 210352Z 00000KT 10SM CLR 09/08 A3026 RMK AO2 SLP247 T00890078
KIAD 210252Z 00000KT 10SM CLR 11/08 A3025 RMK AO2 SLP243 T01110083 53011
KIAD 210152Z 00000KT 10SM CLR 12/08 A3024 RMK AO2 SLP240 T01170083
KIAD 210052Z 00000KT 10SM FEW250 12/08 A3023 RMK AO2 SLP235 T01220083
KIAD 202352Z 00000KT 10SM FEW250 14/08 A3022 RMK AO2 SLP233 T01440083 10244 20144 53006
KIAD 202252Z 06003KT 10SM FEW250 18/07 A3021 RMK AO2 SLP231 T01780072
KIAD 202152Z 35007KT 10SM FEW250 22/07 A3020 RMK AO2 SLP226 T02170067
KIAD 202052Z 34007KT 10SM FEW250 23/06 A3020 RMK AO2 SLP226 T02330061 56006
KIAD 201952Z 34006KT 10SM FEW250 24/04 A3020 RMK AO2 SLP226 T02390044
KIAD 201852Z 32009KT 10SM FEW250 24/04 A3021 RMK AO2 SLP228 T02390044
KIAD 201752Z 36011KT 10SM FEW250 23/04 A3022 RMK AO2 SLP233 T02330039 10233 20083 58016
KIAD 201652Z 32010KT 10SM SCT250 23/08 A3025 RMK AO2 SLP243 T02280083
KIAD 201552Z 29008KT 10SM BKN250 22/11 A3026 RMK AO2 SLP247 T02220106
KIAD 201452Z 30012KT 10SM BKN250 21/11 A3027 RMK AO2 SLP248 T02060106 51014
KIAD 201352Z 00000KT 10SM BKN250 18/11 A3027 RMK AO2 SLP248 T01830106